Time;durP1;ratioP1;P1;durP2;ratioP2;P2;SDS_P1;SDS_P2;PMS_P1;PMS_P2;Temp;Humidity;BMP_temperature;BMP_pressure;BME280_temperature;BME280_humidity;BME280_pressure;Samples;Min_cycle;Max_cycle;Signal;HPM_P1;HPM_P2
2023/05/29 00:00:07;;;;;;;13.13;1.08;;;;;;;13.82;66.73;102196.34;7357699;19;20006;-63
2023/05/29 00:02:37;;;;;;;9.90;1.00;;;;;;;13.83;67.25;102200.66;7355430;19;20014;-63
2023/05/29 00:05:05;;;;;;;8.60;1.10;;;;;;;13.81;67.01;102204.44;7357787;19;20029;-62
2023/05/29 00:07:33;;;;;;;10.98;1.13;;;;;;;13.76;66.88;102204.88;7356896;19;20011;-63
2023/05/29 00:10:01;;;;;;;10.15;0.80;;;;;;;13.75;67.42;102205.00;7359545;19;20047;-63
2023/05/29 00:12:29;;;;;;;8.18;0.70;;;;;;;13.64;67.57;102212.09;7365140;19;20023;-64
2023/05/29 00:14:57;;;;;;;11.63;1.20;;;;;;;13.51;67.94;102205.41;7363732;19;20021;-64
2023/05/29 00:17:25;;;;;;;12.52;1.00;;;;;;;13.49;68.28;102205.53;7362051;19;20086;-63
2023/05/29 00:19:52;;;;;;;9.05;1.10;;;;;;;13.45;68.22;102209.44;7366090;19;20115;-63
2023/05/29 00:22:20;;;;;;;7.60;0.75;;;;;;;13.46;68.31;102215.56;7365784;19;20018;-63
2023/05/29 00:24:48;;;;;;;9.30;1.10;;;;;;;13.42;68.24;102211.50;7365519;19;20017;-63
2023/05/29 00:27:16;;;;;;;9.25;0.70;;;;;;;13.43;68.16;102210.53;7364582;19;20022;-64
2023/05/29 00:29:43;;;;;;;9.13;0.90;;;;;;;13.43;68.41;102226.41;7361465;19;20106;-64
2023/05/29 00:32:11;;;;;;;8.23;0.65;;;;;;;13.37;68.54;102222.50;7361093;19;20029;-64
2023/05/29 00:34:39;;;;;;;7.88;0.90;;;;;;;13.37;68.78;102221.66;7364985;19;20026;-62
2023/05/29 00:37:08;;;;;;;11.90;0.85;;;;;;;13.32;68.78;102214.13;7364327;19;20581;-68
2023/05/29 00:39:35;;;;;;;7.82;0.90;;;;;;;13.33;68.98;102214.97;7363721;19;20088;-62
2023/05/29 00:42:04;;;;;;;11.02;1.20;;;;;;;13.36;69.15;102218.16;7363110;19;20019;-63
2023/05/29 00:44:32;;;;;;;8.52;0.80;;;;;;;13.37;68.84;102209.28;7364771;19;20471;-63
2023/05/29 00:46:59;;;;;;;10.00;1.15;;;;;;;13.41;68.82;102209.84;7359159;19;20010;-63
2023/05/29 00:49:27;;;;;;;9.93;0.82;;;;;;;13.37;68.82;102200.50;7360667;19;20038;-62
2023/05/29 00:51:56;;;;;;;6.88;0.70;;;;;;;13.36;69.17;102207.59;7362442;19;20010;-63
2023/05/29 00:54:27;;;;;;;10.48;1.23;;;;;;;13.36;69.27;102198.84;7363896;19;20502;-63
2023/05/29 00:56:57;;;;;;;9.60;0.80;;;;;;;13.32;69.48;102195.63;7362337;19;20401;-63
2023/05/29 00:59:30;;;;;;;10.85;0.93;;;;;;;13.31;69.44;102203.72;7363955;19;20086;-62
2023/05/29 01:01:59;;;;;;;14.48;1.63;;;;;;;13.29;69.36;102209.13;7359232;19;20015;-62
2023/05/29 01:04:27;;;;;;;8.30;0.77;;;;;;;13.22;69.57;102194.78;7362928;19;20025;-61
2023/05/29 01:06:56;;;;;;;9.70;1.27;;;;;;;13.17;69.93;102203.13;7362773;19;20128;-62
2023/05/29 01:09:23;;;;;;;11.50;0.93;;;;;;;13.09;70.25;102205.56;7361669;19;20025;-63
2023/05/29 01:11:52;;;;;;;10.02;0.82;;;;;;;13.02;70.68;102203.59;7362974;19;20029;-64
2023/05/29 01:14:33;;;;;;;8.95;1.13;;;;;;;12.88;70.97;102209.25;7363479;19;20018;-62
2023/05/29 01:17:03;;;;;;;8.52;0.88;;;;;;;12.89;71.15;102205.66;7359350;19;20014;-63
2023/05/29 01:19:34;;;;;;;6.70;0.70;;;;;;;12.93;71.09;102199.97;7360801;19;20021;-64
2023/05/29 01:22:11;;;;;;;7.72;1.08;;;;;;;12.96;70.85;102209.41;7361084;19;20018;-62
2023/05/29 01:24:45;;;;;;;8.68;1.60;;;;;;;12.95;71.29;102200.66;7362655;19;20015;-63
2023/05/29 01:27:17;;;;;;;7.38;1.00;;;;;;;13.04;70.90;102212.22;7361995;19;20110;-63
2023/05/29 01:29:50;;;;;;;9.63;1.00;;;;;;;13.01;70.69;102212.47;7362239;19;20014;-63
2023/05/29 01:32:20;;;;;;;10.45;0.88;;;;;;;13.06;70.59;102208.47;7358898;19;20444;-62
2023/05/29 01:34:47;;;;;;;9.52;0.82;;;;;;;13.03;70.37;102192.06;7362532;19;20035;-63
2023/05/29 01:37:15;;;;;;;9.05;0.60;;;;;;;13.00;70.71;102201.09;7360052;19;20039;-63
2023/05/29 01:39:42;;;;;;;10.48;1.08;;;;;;;13.01;70.68;102191.34;7363230;19;20501;-63
2023/05/29 01:42:10;;;;;;;10.95;0.73;;;;;;;13.05;70.79;102190.13;7359258;19;20018;-62
2023/05/29 01:44:38;;;;;;;11.43;0.90;;;;;;;13.05;70.80;102201.53;7363612;19;20103;-62
2023/05/29 01:47:06;;;;;;;5.82;1.10;;;;;;;13.01;70.86;102208.03;7359359;19;20242;-63
2023/05/29 01:49:36;;;;;;;6.32;0.70;;;;;;;12.99;70.80;102202.06;7360321;19;20459;-63
2023/05/29 01:52:04;;;;;;;11.35;0.63;;;;;;;12.96;71.26;102196.19;7361567;19;20018;-62
2023/05/29 01:54:31;;;;;;;8.07;0.80;;;;;;;12.96;71.35;102201.47;7362519;19;20098;-62
2023/05/29 01:57:02;;;;;;;8.40;1.00;;;;;;;12.93;71.55;102202.59;7358827;19;20019;-63
2023/05/29 01:59:30;;;;;;;9.45;0.80;;;;;;;12.91;71.55;102201.03;7362470;19;20011;-63
2023/05/29 02:01:57;;;;;;;7.05;1.40;;;;;;;12.88;71.40;102199.53;7359292;19;20018;-63
2023/05/29 02:04:25;;;;;;;8.57;0.77;;;;;;;12.86;71.86;102197.00;7360779;19;20495;-62
2023/05/29 02:06:52;;;;;;;11.32;1.27;;;;;;;12.87;72.21;102200.50;7361309;19;20010;-62
2023/05/29 02:09:22;;;;;;;5.57;0.70;;;;;;;12.85;71.81;102194.50;7360504;19;20025;-64
2023/05/29 02:11:49;;;;;;;11.10;0.82;;;;;;;12.87;71.93;102195.22;7359720;19;20505;-63
2023/05/29 02:14:18;;;;;;;14.60;1.05;;;;;;;12.78;72.08;102190.72;7358784;19;20018;-63
2023/05/29 02:16:45;;;;;;;6.22;0.60;;;;;;;12.76;72.00;102182.09;7354573;19;20602;-64
2023/05/29 02:19:13;;;;;;;10.38;0.93;;;;;;;12.72;72.45;102188.63;7360666;19;20010;-62
2023/05/29 02:21:40;;;;;;;6.90;0.82;;;;;;;12.70;73.02;102188.72;7359367;19;20527;-63
2023/05/29 02:24:08;;;;;;;14.43;1.00;;;;;;;12.68;72.57;102182.78;7359897;19;21689;-64
2023/05/29 02:26:36;;;;;;;9.73;1.05;;;;;;;12.66;72.57;102197.06;7360181;19;20391;-63
2023/05/29 02:29:05;;;;;;;7.82;0.68;;;;;;;12.61;72.90;102191.34;7361214;19;20023;-63
2023/05/29 02:31:33;;;;;;;10.75;0.80;;;;;;;12.62;72.86;102193.00;7356138;19;20230;-63
2023/05/29 02:34:00;;;;;;;6.88;0.70;;;;;;;12.58;72.93;102191.63;7359655;19;20018;-62
2023/05/29 02:36:28;;;;;;;13.45;0.80;;;;;;;12.59;72.64;102193.28;7358028;19;20049;-63
2023/05/29 02:38:55;;;;;;;10.25;0.80;;;;;;;12.61;72.99;102193.97;7360789;19;20052;-63
2023/05/29 02:41:23;;;;;;;10.65;0.90;;;;;;;12.62;72.66;102193.84;7359320;19;20433;-63
2023/05/29 02:43:50;;;;;;;14.07;2.75;;;;;;;12.61;72.12;102197.47;7359811;19;20024;-64
2023/05/29 02:46:17;;;;;;;9.63;0.82;;;;;;;12.61;74.22;102193.97;7357189;19;20074;-62
2023/05/29 02:48:45;;;;;;;10.52;1.10;;;;;;;12.62;74.34;102191.22;7357472;19;20067;-63
2023/05/29 02:51:13;;;;;;;7.57;0.80;;;;;;;12.66;76.12;102189.97;7359251;19;20015;-63
2023/05/29 02:53:41;;;;;;;10.30;0.70;;;;;;;12.62;72.82;102180.66;7360480;19;20015;-63
2023/05/29 02:56:09;;;;;;;8.80;1.10;;;;;;;12.58;72.64;102197.75;7358315;19;20010;-62
2023/05/29 02:58:36;;;;;;;5.00;0.90;;;;;;;12.58;73.42;102194.25;7360305;19;20014;-63
2023/05/29 03:01:04;;;;;;;10.93;0.65;;;;;;;12.52;72.69;102184.22;7353651;19;20033;-62
2023/05/29 03:03:32;;;;;;;8.43;0.75;;;;;;;12.49;72.84;102189.78;7359505;19;20073;-62
2023/05/29 03:06:00;;;;;;;7.03;1.00;;;;;;;12.48;72.25;102188.09;7358001;19;20575;-63
2023/05/29 03:08:28;;;;;;;13.27;0.88;;;;;;;12.47;73.25;102186.41;7359739;19;20010;-62
2023/05/29 03:10:56;;;;;;;10.20;0.75;;;;;;;12.44;73.15;102190.97;7359016;19;20051;-63
2023/05/29 03:13:24;;;;;;;8.57;0.70;;;;;;;12.47;72.67;102195.16;7359149;19;20011;-62
2023/05/29 03:15:56;;;;;;;3.35;0.60;;;;;;;12.46;72.15;102193.50;7355309;19;21825;-63
2023/05/29 03:18:24;;;;;;;13.73;0.82;;;;;;;12.41;72.32;102190.41;7359636;19;20019;-63
2023/05/29 03:20:51;;;;;;;8.77;0.95;;;;;;;12.44;72.08;102193.63;7358988;19;20014;-63
2023/05/29 03:23:19;;;;;;;12.00;1.40;;;;;;;12.30;72.21;102198.41;7357320;19;20495;-63
2023/05/29 03:25:47;;;;;;;9.02;0.70;;;;;;;12.24;73.06;102191.84;7359188;19;20018;-63
2023/05/29 03:28:14;;;;;;;12.27;0.80;;;;;;;12.19;73.32;102193.22;7358010;19;20654;-62
2023/05/29 03:30:42;;;;;;;10.30;1.00;;;;;;;12.14;73.44;102179.56;7359833;19;20019;-62
2023/05/29 03:33:09;;;;;;;13.05;0.90;;;;;;;12.12;73.41;102190.25;7360017;19;20078;-62
2023/05/29 03:35:37;;;;;;;7.57;0.88;;;;;;;12.12;73.41;102186.78;7360634;19;20018;-63
2023/05/29 03:38:04;;;;;;;13.15;0.82;;;;;;;12.11;73.75;102182.44;7359239;19;20015;-63
2023/05/29 03:40:32;;;;;;;7.40;0.80;;;;;;;12.11;73.91;102190.38;7352279;19;20356;-62
2023/05/29 03:43:00;;;;;;;9.40;1.33;;;;;;;12.13;73.43;102191.09;7358322;19;20015;-66
2023/05/29 03:45:30;;;;;;;9.38;0.70;;;;;;;12.15;73.23;102191.78;7354526;19;20035;-64
2023/05/29 03:47:57;;;;;;;10.18;1.15;;;;;;;12.14;73.30;102190.13;7356623;19;20014;-63
2023/05/29 03:50:25;;;;;;;9.48;0.80;;;;;;;12.15;73.22;102203.16;7359248;19;20014;-63
2023/05/29 03:52:52;;;;;;;7.25;1.10;;;;;;;12.11;73.39;102193.84;7355694;19;20085;-62
2023/05/29 03:55:21;;;;;;;13.30;1.00;;;;;;;12.08;73.41;102194.13;7359378;19;20532;-64
2023/05/29 03:57:49;;;;;;;9.98;1.63;;;;;;;12.02;73.71;102194.63;7358062;19;20769;-64
2023/05/29 04:00:18;;;;;;;9.35;0.65;;;;;;;12.01;73.73;102192.94;7355959;19;20014;-64
2023/05/29 04:02:45;;;;;;;8.05;0.73;;;;;;;12.06;73.26;102196.03;7354920;19;20018;-63
2023/05/29 04:05:14;;;;;;;7.15;0.75;;;;;;;12.02;73.48;102193.78;7357359;19;20010;-63
2023/05/29 04:07:44;;;;;;;9.13;0.60;;;;;;;11.97;73.61;102194.16;7356183;19;21024;-62
2023/05/29 04:10:12;;;;;;;11.30;3.08;;;;;;;11.93;73.40;102185.69;7357426;19;20027;-63
2023/05/29 04:12:40;;;;;;;6.75;0.98;;;;;;;11.93;73.70;102184.84;7358668;19;20128;-63
2023/05/29 04:15:08;;;;;;;9.98;0.80;;;;;;;11.93;73.35;102180.41;7357867;19;20086;-64
2023/05/29 04:17:36;;;;;;;11.95;0.77;;;;;;;11.99;74.16;102193.06;7351546;19;20101;-64
2023/05/29 04:20:08;;;;;;;7.35;0.60;;;;;;;12.03;73.12;102198.09;7357943;19;20034;-62
2023/05/29 04:22:37;;;;;;;9.50;0.63;;;;;;;12.04;73.09;102205.88;7356544;19;20036;-62
2023/05/29 04:25:05;;;;;;;8.60;0.73;;;;;;;12.06;73.56;102205.75;7355157;19;20043;-62
2023/05/29 04:27:37;;;;;;;15.15;0.82;;;;;;;12.10;73.04;102201.88;7357233;19;20014;-63
2023/05/29 04:30:06;;;;;;;8.65;0.85;;;;;;;12.11;72.58;102207.03;7357321;19;21746;-62
2023/05/29 04:32:34;;;;;;;9.95;0.82;;;;;;;12.10;72.55;102208.00;7354640;19;20010;-63
2023/05/29 04:35:02;;;;;;;12.90;1.13;;;;;;;12.11;72.51;102209.69;7357718;19;20023;-62
2023/05/29 04:37:32;;;;;;;6.63;0.77;;;;;;;12.10;72.65;102212.44;7353821;19;20033;-64
2023/05/29 04:39:59;;;;;;;9.35;0.68;;;;;;;12.11;73.64;102212.31;7357328;19;20017;-62
2023/05/29 04:42:27;;;;;;;9.77;0.80;;;;;;;12.13;72.41;102213.03;7356942;19;20007;-63
2023/05/29 04:44:54;;;;;;;5.20;1.13;;;;;;;12.13;72.32;102218.31;7356753;19;20011;-62
2023/05/29 04:47:22;;;;;;;6.00;0.60;;;;;;;12.12;72.78;102214.00;7353652;19;20038;-63
2023/05/29 04:49:50;;;;;;;5.13;0.60;;;;;;;12.13;72.49;102210.41;7357458;19;20066;-63
2023/05/29 04:52:17;;;;;;;8.88;0.70;;;;;;;12.13;72.65;102214.84;7358236;19;20029;-64
2023/05/29 04:54:45;;;;;;;9.63;1.02;;;;;;;12.18;72.08;102224.03;7359042;19;20007;-62
2023/05/29 04:57:13;;;;;;;11.98;0.95;;;;;;;12.19;71.71;102219.59;7360865;19;20035;-62
2023/05/29 04:59:41;;;;;;;7.88;2.15;;;;;;;12.19;72.29;102217.78;7363109;19;20090;-62
2023/05/29 05:02:09;;;;;;;10.45;0.70;;;;;;;12.21;72.03;102226.41;7360621;19;20010;-63
2023/05/29 05:04:36;;;;;;;7.38;0.60;;;;;;;12.22;72.01;102222.81;7363243;19;20474;-62
2023/05/29 05:07:05;;;;;;;7.75;0.57;;;;;;;12.24;72.21;102223.50;7363459;19;20113;-62
2023/05/29 05:09:33;;;;;;;8.93;0.80;;;;;;;12.30;72.08;102228.28;7363160;19;20485;-63
2023/05/29 05:12:01;;;;;;;4.05;0.70;;;;;;;12.38;71.43;102230.28;7364420;19;20019;-63
2023/05/29 05:14:28;;;;;;;5.25;0.50;;;;;;;12.37;71.03;102216.25;7361666;19;20294;-62
2023/05/29 05:16:56;;;;;;;8.48;0.70;;;;;;;12.39;71.13;102214.28;7357611;19;21716;-62
2023/05/29 05:19:24;;;;;;;5.68;0.70;;;;;;;12.41;71.11;102220.28;7360291;19;20018;-62
2023/05/29 05:21:52;;;;;;;8.50;0.60;;;;;;;12.47;70.99;102218.09;7362983;19;20359;-63
2023/05/29 05:24:20;;;;;;;7.20;0.90;;;;;;;12.55;70.63;102231.47;7365517;19;20099;-63
2023/05/29 05:26:48;;;;;;;7.70;0.60;;;;;;;12.57;70.46;102226.91;7362667;19;20022;-63
2023/05/29 05:29:15;;;;;;;6.15;0.60;;;;;;;12.62;70.14;102238.75;7363145;19;20025;-63
2023/05/29 05:31:46;;;;;;;4.78;0.88;;;;;;;12.70;69.39;102246.00;7359856;19;20388;-62
2023/05/29 05:34:14;;;;;;;10.25;0.73;;;;;;;12.68;69.64;102240.88;7361470;19;20003;-62
2023/05/29 05:36:42;;;;;;;8.65;0.63;;;;;;;12.74;69.24;102242.16;7360805;19;20006;-62
2023/05/29 05:39:09;;;;;;;8.30;0.52;;;;;;;12.74;69.26;102244.78;7362021;19;20007;-63
2023/05/29 05:41:37;;;;;;;10.10;1.00;;;;;;;12.76;69.23;102246.31;7362513;19;20089;-64
2023/05/29 05:44:05;;;;;;;14.18;1.15;;;;;;;12.79;69.19;102248.72;7361969;19;20013;-63
2023/05/29 05:46:33;;;;;;;11.30;0.90;;;;;;;12.76;69.35;102251.59;7359006;19;20479;-63
2023/05/29 05:49:00;;;;;;;10.63;0.88;;;;;;;12.74;69.52;102250.91;7359953;19;20741;-62
2023/05/29 05:51:28;;;;;;;10.43;1.10;;;;;;;12.76;69.36;102253.41;7361957;19;20018;-62
2023/05/29 05:53:55;;;;;;;11.35;0.93;;;;;;;12.71;69.65;102263.53;7358689;19;20018;-65
2023/05/29 05:56:23;;;;;;;7.68;1.20;;;;;;;12.75;69.73;102259.66;7360737;19;20040;-62
2023/05/29 05:58:51;;;;;;;10.60;1.20;;;;;;;12.69;69.43;102253.13;7362321;19;20014;-63
2023/05/29 06:01:19;;;;;;;11.07;1.67;;;;;;;12.76;69.38;102254.25;7357912;19;20018;-63
2023/05/29 06:03:47;;;;;;;8.30;0.82;;;;;;;12.82;69.17;102252.88;7360634;19;20014;-63
2023/05/29 06:06:16;;;;;;;9.93;1.17;;;;;;;12.88;69.34;102260.28;7361740;19;20380;-64
2023/05/29 06:08:45;;;;;;;6.15;0.73;;;;;;;12.91;69.05;102262.66;7360183;19;20025;-64
2023/05/29 06:11:13;;;;;;;9.63;1.02;;;;;;;12.99;67.89;102278.69;7359696;19;20680;-63
2023/05/29 06:13:41;;;;;;;5.53;0.60;;;;;;;13.19;67.09;102258.50;7360249;19;20026;-63
2023/05/29 06:16:10;;;;;;;6.55;0.70;;;;;;;13.37;65.89;102278.00;7356305;19;20019;-62
2023/05/29 06:18:38;;;;;;;8.70;0.80;;;;;;;13.44;65.65;102273.88;7360102;19;20070;-63
2023/05/29 06:21:07;;;;;;;10.82;0.93;;;;;;;13.45;66.13;102278.19;7360285;19;20060;-63
2023/05/29 06:23:37;;;;;;;9.13;0.68;;;;;;;13.56;65.42;102269.31;7358283;19;20053;-63
2023/05/29 06:26:05;;;;;;;8.32;0.57;;;;;;;13.60;65.22;102276.00;7358913;19;20881;-64
2023/05/29 06:28:34;;;;;;;5.13;1.05;;;;;;;13.60;64.64;102276.00;7358844;19;20062;-64
2023/05/29 06:31:03;;;;;;;6.80;0.63;;;;;;;13.40;65.38;102276.91;7357560;19;20030;-63
2023/05/29 06:33:31;;;;;;;10.60;1.00;;;;;;;13.43;65.70;102295.16;7360542;19;20014;-62
2023/05/29 06:36:00;;;;;;;8.20;1.20;;;;;;;13.42;65.57;102288.19;7360060;19;20109;-62
2023/05/29 06:38:31;;;;;;;8.07;0.77;;;;;;;13.54;65.01;102285.31;7358029;19;20026;-63
2023/05/29 06:41:00;;;;;;;8.60;0.50;;;;;;;13.64;65.46;102288.81;7360119;19;20014;-63
2023/05/29 06:43:28;;;;;;;6.07;0.60;;;;;;;13.64;64.71;102290.59;7359312;19;20018;-63
2023/05/29 06:45:56;;;;;;;7.30;0.80;;;;;;;13.63;64.52;102288.94;7357978;19;21197;-63
2023/05/29 06:48:24;;;;;;;9.02;0.63;;;;;;;13.33;64.77;102284.53;7357977;19;20022;-62
2023/05/29 06:50:52;;;;;;;7.88;0.80;;;;;;;13.31;64.13;102286.47;7358947;19;20026;-62
2023/05/29 06:53:20;;;;;;;4.20;0.50;;;;;;;13.37;63.93;102279.81;7359938;19;20433;-62
2023/05/29 06:55:48;;;;;;;9.35;0.50;;;;;;;13.48;64.35;102288.47;7359920;19;20014;-63
2023/05/29 06:58:16;;;;;;;5.78;0.50;;;;;;;13.58;62.87;102286.69;7356575;19;20444;-64
2023/05/29 07:00:44;;;;;;;9.02;0.75;;;;;;;13.63;62.80;102297.72;7356657;19;20014;-64
2023/05/29 07:03:12;;;;;;;9.90;0.90;;;;;;;13.71;62.30;102286.47;7358684;19;20015;-63
2023/05/29 07:05:40;;;;;;;5.22;0.50;;;;;;;13.65;61.88;102292.28;7358540;19;20018;-64
2023/05/29 07:08:08;;;;;;;8.05;0.60;;;;;;;13.63;62.09;102281.84;7358366;19;20033;-64
2023/05/29 07:10:36;;;;;;;8.32;0.50;;;;;;;13.65;62.32;102279.06;7359547;19;20018;-63
2023/05/29 07:13:06;;;;;;;12.38;0.50;;;;;;;13.66;62.21;102284.19;7357754;19;20017;-63
2023/05/29 07:15:34;;;;;;;3.58;0.47;;;;;;;13.61;61.99;102288.25;7356502;19;20514;-62
2023/05/29 07:18:05;;;;;;;8.45;0.68;;;;;;;13.68;61.76;102276.97;7355702;19;20014;-64
2023/05/29 07:20:33;;;;;;;5.32;1.45;;;;;;;13.80;62.08;102269.75;7356414;19;20052;-63
2023/05/29 07:23:01;;;;;;;5.10;0.35;;;;;;;13.99;60.94;102269.75;7355587;19;20102;-64
2023/05/29 07:25:30;;;;;;;4.85;0.50;;;;;;;14.10;60.96;102271.44;7355869;19;20019;-64
2023/05/29 07:27:58;;;;;;;10.27;0.50;;;;;;;14.24;59.86;102276.28;7356241;19;20035;-63
2023/05/29 07:30:40;;;;;;;11.00;0.60;;;;;;;14.38;59.41;102273.22;7353645;19;20076;-63
2023/05/29 07:33:08;;;;;;;8.60;0.55;;;;;;;14.43;59.28;102276.28;7355810;19;20097;-63
2023/05/29 07:35:36;;;;;;;10.15;0.50;;;;;;;14.46;59.38;102291.91;7356086;19;20021;-64
2023/05/29 07:38:05;;;;;;;7.07;0.70;;;;;;;14.65;59.20;102287.53;7358543;19;20014;-63
2023/05/29 07:40:32;;;;;;;3.80;0.85;;;;;;;15.04;58.58;102290.91;7357592;19;20028;-64
2023/05/29 07:43:00;;;;;;;11.57;0.60;;;;;;;15.37;57.15;102287.69;7357500;19;20019;-63
2023/05/29 07:45:28;;;;;;;5.63;0.50;;;;;;;15.64;56.78;102293.03;7355700;19;20560;-65
2023/05/29 07:47:57;;;;;;;5.75;0.50;;;;;;;16.20;55.64;102290.03;7356704;19;20015;-63
2023/05/29 07:50:26;;;;;;;5.38;0.65;;;;;;;16.37;53.93;102308.78;7358175;19;20867;-64
2023/05/29 07:52:56;;;;;;;3.92;0.40;;;;;;;16.07;54.05;102302.06;7357482;19;20033;-64
2023/05/29 07:55:23;;;;;;;6.47;0.60;;;;;;;15.32;55.58;102301.41;7354667;19;20079;-62
2023/05/29 07:57:51;;;;;;;8.95;0.68;;;;;;;15.06;57.45;102296.91;7357468;19;20380;-62
2023/05/29 08:00:19;;;;;;;8.57;0.63;;;;;;;14.71;58.36;102298.41;7355671;19;20499;-62
2023/05/29 08:02:47;;;;;;;5.85;0.50;;;;;;;14.49;58.56;102304.88;7356552;19;20859;-67
2023/05/29 08:05:17;;;;;;;2.88;0.40;;;;;;;14.39;59.33;102289.97;7354646;19;20029;-62
2023/05/29 08:07:48;;;;;;;5.80;0.30;;;;;;;14.60;58.83;102290.63;7360278;19;20023;-62
2023/05/29 08:10:16;;;;;;;4.88;0.50;;;;;;;14.88;58.33;102296.84;7357556;19;20029;-63
2023/05/29 08:12:45;;;;;;;7.75;0.60;;;;;;;15.33;56.29;102308.38;7357338;19;20030;-63
2023/05/29 08:15:16;;;;;;;7.38;0.60;;;;;;;15.57;55.50;102304.38;7358415;19;20141;-63
2023/05/29 08:17:44;;;;;;;9.43;0.50;;;;;;;15.75;54.19;102310.53;7354802;19;21786;-63
2023/05/29 08:20:12;;;;;;;7.97;0.50;;;;;;;15.86;53.99;102310.31;7357788;19;20527;-63
2023/05/29 08:22:41;;;;;;;5.07;0.68;;;;;;;15.83;54.10;102310.63;7355795;19;20050;-64
2023/05/29 08:25:09;;;;;;;5.55;0.50;;;;;;;15.63;54.81;102309.91;7358842;19;21120;-63
2023/05/29 08:27:37;;;;;;;6.20;0.50;;;;;;;15.46;55.04;102302.72;7357331;19;20015;-63
2023/05/29 08:30:11;;;;;;;8.85;1.17;;;;;;;15.57;55.03;102291.94;7341120;19;20022;-64
2023/05/29 08:32:52;;;;;;;;;;;;;;;;;;;;;
2023/05/29 08:35:22;;;;;;;5.60;0.30;;;;;;;15.77;54.34;102298.78;7359843;19;20542;-62
2023/05/29 08:37:55;;;;;;;4.47;0.60;;;;;;;15.83;54.48;102300.84;7355488;19;20033;-63
2023/05/29 08:40:23;;;;;;;5.65;0.45;;;;;;;15.98;54.07;102302.97;7357764;19;20011;-62
2023/05/29 08:42:58;;;;;;;5.75;0.50;;;;;;;16.03;53.53;102309.50;7355862;19;20025;-63
2023/05/29 08:45:28;;;;;;;9.55;0.75;;;;;;;15.90;53.84;102305.56;7355782;19;20022;-62
2023/05/29 08:47:58;;;;;;;6.63;1.20;;;;;;;15.79;54.90;102299.47;7355826;19;20018;-63
2023/05/29 08:50:26;;;;;;;8.00;1.25;;;;;;;15.72;55.46;102302.88;7360006;19;20018;-64
2023/05/29 08:52:57;;;;;;;5.35;0.40;;;;;;;15.62;55.15;102310.06;7356579;19;20018;-64
2023/05/29 08:55:27;;;;;;;2.30;0.40;;;;;;;15.67;54.96;102310.44;7358607;19;20093;-63
2023/05/29 08:57:58;;;;;;;7.18;0.50;;;;;;;15.63;55.59;102304.63;7359420;19;20021;-62
2023/05/29 09:00:29;;;;;;;4.97;0.50;;;;;;;15.65;55.46;102315.06;7362379;19;20134;-63
2023/05/29 09:02:59;;;;;;;3.90;0.60;;;;;;;15.62;55.65;102310.91;7361309;19;20018;-63
2023/05/29 09:05:27;;;;;;;6.30;0.60;;;;;;;15.57;55.57;102305.19;7363865;19;20014;-62
2023/05/29 09:07:57;;;;;;;8.10;0.60;;;;;;;15.60;55.93;102312.84;7363981;19;20006;-63
2023/05/29 09:10:28;;;;;;;5.07;0.50;;;;;;;15.59;55.53;102323.63;7361243;19;20383;-63
2023/05/29 09:13:03;;;;;;;8.00;0.50;;;;;;;15.66;54.81;102316.72;7360585;19;20021;-63
2023/05/29 09:15:33;;;;;;;3.25;0.40;;;;;;;15.67;54.81;102321.91;7359983;19;21256;-63
2023/05/29 09:18:04;;;;;;;7.60;0.50;;;;;;;15.52;54.16;102312.78;7359800;19;20388;-63
2023/05/29 09:20:34;;;;;;;6.03;0.70;;;;;;;15.51;53.95;102340.28;7364621;19;20014;-63
2023/05/29 09:23:08;;;;;;;5.45;0.60;;;;;;;15.34;54.32;102325.94;7362697;19;20015;-63
2023/05/29 09:25:46;;;;;;;7.43;0.55;;;;;;;15.57;54.54;102315.81;7363030;19;20006;-63
2023/05/29 09:28:19;;;;;;;5.53;0.55;;;;;;;15.66;54.65;102335.31;7362602;19;20049;-63
2023/05/29 09:30:48;;;;;;;5.38;0.50;;;;;;;15.73;54.03;102328.44;7356588;19;20022;-64
2023/05/29 09:33:19;;;;;;;6.53;0.70;;;;;;;15.81;54.18;102331.16;7361942;19;20022;-62
2023/05/29 09:35:50;;;;;;;8.68;0.98;;;;;;;15.86;54.33;102317.44;7361998;19;20377;-63
2023/05/29 09:38:19;;;;;;;7.68;1.05;;;;;;;15.63;54.63;102330.31;7358945;19;20478;-63
2023/05/29 09:41:06;;;;;;;8.68;0.95;;;;;;;15.74;54.67;102328.28;7362218;19;20037;-65
2023/05/29 09:43:34;;;;;;;9.18;0.63;;;;;;;15.63;54.05;102331.16;7359834;19;20126;-64
2023/05/29 09:46:01;;;;;;;5.50;1.15;;;;;;;15.59;54.17;102331.59;7359112;19;20022;-62
2023/05/29 09:48:30;;;;;;;5.90;0.65;;;;;;;15.50;54.68;102325.31;7359829;19;20325;-64
2023/05/29 09:50:58;;;;;;;5.85;0.65;;;;;;;15.45;54.99;102332.88;7362112;19;20018;-64
2023/05/29 09:53:28;;;;;;;8.65;0.60;;;;;;;15.43;55.02;102318.09;7360895;19;20014;-63
2023/05/29 09:55:59;;;;;;;3.25;0.70;;;;;;;15.60;55.33;102325.28;7362210;19;20370;-63
2023/05/29 09:58:27;;;;;;;3.20;0.50;;;;;;;15.84;54.15;102320.25;7360997;19;20010;-62
2023/05/29 10:00:57;;;;;;;6.32;0.60;;;;;;;16.00;54.06;102312.44;7357906;19;20010;-62
2023/05/29 10:03:29;;;;;;;5.82;0.55;;;;;;;16.36;52.32;102323.03;7359114;19;21676;-63
2023/05/29 10:05:58;;;;;;;5.80;0.47;;;;;;;16.55;51.68;102339.69;7361186;19;20038;-63
2023/05/29 10:08:27;;;;;;;11.52;0.70;;;;;;;16.55;51.60;102326.38;7360009;19;21738;-63
2023/05/29 10:11:01;;;;;;;8.63;1.20;;;;;;;16.62;51.47;102330.09;7359264;19;20018;-63
2023/05/29 10:13:36;;;;;;;4.97;0.50;;;;;;;16.67;51.40;102349.09;7361441;19;22277;-63
2023/05/29 10:16:06;;;;;;;4.15;0.60;;;;;;;16.53;51.68;102328.34;7358177;19;20483;-63
2023/05/29 10:18:38;;;;;;;8.43;0.70;;;;;;;16.62;51.12;102337.25;7359152;19;20022;-62
2023/05/29 10:21:11;;;;;;;4.60;0.52;;;;;;;16.39;51.49;102338.69;7359961;19;20043;-62
2023/05/29 10:23:43;;;;;;;2.83;0.60;;;;;;;16.40;51.75;102343.88;7360410;19;20109;-63
2023/05/29 10:26:21;;;;;;;5.60;0.60;;;;;;;16.25;52.00;102342.75;7359228;19;20010;-62
2023/05/29 10:29:05;;;;;;;5.45;0.40;;;;;;;16.05;52.81;102336.72;7360648;19;20283;-63
2023/05/29 10:31:46;;;;;;;6.93;0.60;;;;;;;16.17;52.51;102334.69;7355725;19;20044;-64
2023/05/29 10:34:27;;;;;;;7.03;0.47;;;;;;;16.29;52.74;102340.59;7358628;19;20604;-62
2023/05/29 10:37:08;;;;;;;10.00;0.80;;;;;;;16.50;52.93;102330.50;7358744;19;20017;-64
2023/05/29 10:39:36;;;;;;;2.53;0.60;;;;;;;16.57;52.08;102343.00;7357373;19;20026;-63
2023/05/29 10:42:26;;;;;;;3.08;0.50;;;;;;;16.59;52.25;102341.06;7360175;19;20011;-63
2023/05/29 10:44:53;;;;;;;2.95;0.40;;;;;;;16.65;52.15;102342.28;7360435;19;20137;-64
2023/05/29 10:47:23;;;;;;;6.93;0.60;;;;;;;16.68;52.04;102347.25;7355690;19;20019;-63
2023/05/29 10:49:52;;;;;;;7.63;0.75;;;;;;;16.56;51.39;102338.66;7358433;19;20010;-63
2023/05/29 10:52:20;;;;;;;5.78;0.63;;;;;;;16.45;52.01;102328.31;7360731;19;20018;-63
2023/05/29 10:54:52;;;;;;;6.72;0.60;;;;;;;16.46;51.95;102337.91;7359690;19;20018;-64
2023/05/29 10:57:22;;;;;;;6.78;0.50;;;;;;;16.55;51.99;102331.69;7358760;19;20021;-63
2023/05/29 10:59:58;;;;;;;5.35;0.50;;;;;;;16.51;52.20;102325.00;7357648;19;20098;-63
2023/05/29 11:02:26;;;;;;;5.88;0.90;;;;;;;16.56;52.26;102317.41;7355053;19;20567;-64
2023/05/29 11:04:59;;;;;;;8.38;0.60;;;;;;;16.70;51.52;102326.69;7359342;19;20039;-63
2023/05/29 11:07:33;;;;;;;10.35;1.27;;;;;;;16.89;51.46;102325.63;7360275;19;20026;-62
2023/05/29 11:12:48;;;;;;;4.32;0.70;;;;;;;16.68;52.03;102344.59;7332737;19;20025;-65
2023/05/29 11:15:16;;;;;;;9.48;1.10;;;;;;;16.31;52.92;102335.97;7344505;19;20014;-65
2023/05/29 11:17:45;;;;;;;5.75;0.70;;;;;;;16.45;52.99;102319.50;7350228;19;20774;-63
2023/05/29 11:20:17;;;;;;;5.38;0.55;;;;;;;16.49;52.95;102334.13;7355677;19;20022;-64
2023/05/29 11:22:46;;;;;;;6.50;0.50;;;;;;;16.45;52.79;102330.97;7355012;19;20011;-62
2023/05/29 11:25:14;;;;;;;7.40;1.05;;;;;;;16.45;52.96;102330.97;7352880;19;21867;-63
2023/05/29 11:27:44;;;;;;;10.70;0.60;;;;;;;16.47;53.00;102326.31;7350930;19;21766;-62
2023/05/29 11:30:12;;;;;;;7.75;0.90;;;;;;;16.45;52.94;102330.13;7353945;19;20574;-62
2023/05/29 11:32:40;;;;;;;6.57;0.50;;;;;;;16.45;52.82;102315.00;7352315;19;20144;-62
2023/05/29 11:35:08;;;;;;;6.45;0.88;;;;;;;16.49;52.84;102334.13;7351604;19;20093;-62